Terminal Aerodrome Forecast
Issued by NWS Cleveland, OH

Home | Current Version | Previous Version | Graphics & Text | Print | Product List | Glossary Off
Versions: 1 2 3 4 5 6 7 8 9 10 11 12 13 14 15 16 17 18 19 20 21 22 23 24 25 26 27

000
FTUS41 KCLE 231300 AAA
TAFCLE
TAF AMD
KCLE 231307Z 2313/2418 25008KT P6SM FEW015 OVC150
     FM231500 32010KT P6SM SCT009 OVC015
      TEMPO 2315/2318 5SM -SHRA BR OVC009
     FM231800 36012KT P6SM OVC020
     FM232200 36012KT P6SM BKN035
     FM240600 01008KT P6SM SCT050=

USA.gov is the U.S. government's official web portal to all federal, state and local government web resources and services.